Terminal Aerodrome Forecast
Issued by NWS Missoula, MT

Home | Current Version | Previous Version | Text Only | Print | Product List | Glossary On
Versions: 1 2 3 4 5 6 7 8 9 10 11 12 13
000
FTUS45 KMSO 021720
TAFBTM
TAF
KBTM 021720Z 0218/0318 30009G16KT P6SM OVC070
     FM030300 17006KT P6SM SCT120
     FM030900 07004KT P6SM SKC=

USA.gov is the U.S. government's official web portal to all federal, state and local government web resources and services.